North River — WYR2549 — position and weather

sailwx.info

Track history (hours):
 
Tides and Currents Weather Stations Pressure Air Temp Water Temp Dewpoint Dewpoint Depression Visibility Wind Speed Wind Dir Waves Ship Positions

North River

Owner: CITY OF NEW YORK, Brooklyn, NY. More information available from US FCC via Universal Licensing System and Coast Guard Vessel Documentation Center.

Last reported at 2017-Mar-15 22:15 UTC. Time now 2017-Mar-23 12:32 UTC.
Position N 40°47' W 073°53'.

Length 78 m.

Type: Tanker. MMSI: 367074110.

Date/timePositionNaut miles runAvg speedWind from/ knotsBaromVisibWave heightAir tempDewpointWater temp
2017-Mar-15 22:15N 40°47' W 073°53'4 6.3
2017-Mar-15 21:32N 40°44' W 073°58'9 9.3
2017-Mar-15 20:33N 40°38' W 074°08'0 0.0
2017-Mar-15 19:33N 40°38' W 074°08'0 0.0
2017-Mar-15 18:33N 40°38' W 074°08'5 4.8
2017-Mar-15 17:33N 40°41' W 074°02'9 9.1
2017-Mar-15 16:33N 40°50' W 073°58'0 0.0
2017-Mar-15 15:33N 40°50' W 073°58'0 0.0
2017-Mar-15 14:33N 40°50' W 073°58'7 7.1
2017-Mar-15 13:33N 40°43' W 073°59'6 6.0
2017-Mar-15 12:33N 40°47' W 073°54'0 0.0
2017-Mar-15 11:33N 40°47' W 073°54'0 0.0
2017-Mar-13 23:33N 40°47' W 073°54'1 1.1
2017-Mar-13 22:24N 40°48' W 073°53'0 0.0
2017-Mar-13 21:17N 40°48' W 073°53'2 3.0
2017-Mar-13 20:33N 40°48' W 073°50'0 0.0
2017-Mar-13 19:18N 40°48' W 073°50'1 1.1
2017-Mar-13 18:33N 40°48' W 073°51'1 1.2
2017-Mar-13 17:32N 40°48' W 073°53'0 0.0
2017-Mar-13 16:33N 40°48' W 073°53'0 0.0
2017-Mar-13 15:33N 40°48' W 073°53'0 0.0
2017-Mar-13 14:30N 40°48' W 073°53'2 2.2
2017-Mar-13 13:34N 40°48' W 073°50'0 0.0
2017-Mar-13 12:33N 40°48' W 073°50'3 2.6
2017-Mar-13 11:33N 40°47' W 073°54'  
2017-Mar-10 18:33N 40°47' W 073°53'1 0.3
2017-Mar-10 14:33N 40°47' W 073°55'1 1.1
2017-Mar-10 13:33N 40°47' W 073°54'0 0.0
2017-Mar-10 12:33N 40°47' W 073°54'0 0.0
2017-Mar-09 21:30N 40°47' W 073°54'1 1.3
2017-Mar-09 20:33N 40°48' W 073°53'0 0.0
2017-Mar-09 19:33N 40°48' W 073°53'2 2.1
2017-Mar-09 18:33N 40°48' W 073°50'0 0.0
2017-Mar-09 14:30N 40°48' W 073°50'3 2.8
2017-Mar-09 13:33N 40°47' W 073°54'  
Track history (hours):
 
Tides and Currents Weather Stations Pressure Air Temp Water Temp Dewpoint Dewpoint Depression Visibility Wind Speed Wind Dir Waves Ship Positions

North River

Owner: CITY OF NEW YORK, Brooklyn, NY. More information available from US FCC via Universal Licensing System and Coast Guard Vessel Documentation Center.

Last reported at 2017-Mar-15 22:15 UTC. Time now 2017-Mar-23 12:32 UTC.
Position N 40°47' W 073°53'.

Length 78 m.

Type: Tanker. MMSI: 367074110.

Date/timePositionNaut miles runAvg speedWind from/ knotsBaromVisibWave heightAir tempDewpointWater temp
2017-Mar-15 22:15N 40°47' W 073°53'4 6.3
2017-Mar-15 21:32N 40°44' W 073°58'9 9.3
2017-Mar-15 20:33N 40°38' W 074°08'0 0.0
2017-Mar-15 19:33N 40°38' W 074°08'0 0.0
2017-Mar-15 18:33N 40°38' W 074°08'5 4.8
2017-Mar-15 17:33N 40°41' W 074°02'9 9.1
2017-Mar-15 16:33N 40°50' W 073°58'0 0.0
2017-Mar-15 15:33N 40°50' W 073°58'0 0.0
2017-Mar-15 14:33N 40°50' W 073°58'7 7.1
2017-Mar-15 13:33N 40°43' W 073°59'6 6.0
2017-Mar-15 12:33N 40°47' W 073°54'0 0.0
2017-Mar-15 11:33N 40°47' W 073°54'0 0.0
2017-Mar-13 23:33N 40°47' W 073°54'1 1.1
2017-Mar-13 22:24N 40°48' W 073°53'0 0.0
2017-Mar-13 21:17N 40°48' W 073°53'2 3.0
2017-Mar-13 20:33N 40°48' W 073°50'0 0.0
2017-Mar-13 19:18N 40°48' W 073°50'1 1.1
2017-Mar-13 18:33N 40°48' W 073°51'1 1.2
2017-Mar-13 17:32N 40°48' W 073°53'0 0.0
2017-Mar-13 16:33N 40°48' W 073°53'0 0.0
2017-Mar-13 15:33N 40°48' W 073°53'0 0.0
2017-Mar-13 14:30N 40°48' W 073°53'2 2.2
2017-Mar-13 13:34N 40°48' W 073°50'0 0.0
2017-Mar-13 12:33N 40°48' W 073°50'3 2.6
2017-Mar-13 11:33N 40°47' W 073°54'  
2017-Mar-10 18:33N 40°47' W 073°53'1 0.3
2017-Mar-10 14:33N 40°47' W 073°55'1 1.1
2017-Mar-10 13:33N 40°47' W 073°54'0 0.0
2017-Mar-10 12:33N 40°47' W 073°54'0 0.0
2017-Mar-09 21:30N 40°47' W 073°54'1 1.3
2017-Mar-09 20:33N 40°48' W 073°53'0 0.0
2017-Mar-09 19:33N 40°48' W 073°53'2 2.1
2017-Mar-09 18:33N 40°48' W 073°50'0 0.0
2017-Mar-09 14:30N 40°48' W 073°50'3 2.8
2017-Mar-09 13:33N 40°47' W 073°54'  

Dump ship's entire track history